sensor_id;sensor_type;location;lat;lon;timestamp;P1;durP1;ratioP1;P2;durP2;ratioP2
9739;SDS011;4909;42.680;26.324;2023-05-16T00:02:03;42.87;;;40.63;;
9739;SDS011;4909;42.680;26.324;2023-05-16T00:04:30;38.67;;;36.33;;
9739;SDS011;4909;42.680;26.324;2023-05-16T00:06:59;36.63;;;34.63;;
9739;SDS011;4909;42.680;26.324;2023-05-16T00:09:25;36.63;;;34.60;;
9739;SDS011;4909;42.680;26.324;2023-05-16T00:11:52;35.30;;;33.30;;
9739;SDS011;4909;42.680;26.324;2023-05-16T00:14:19;34.17;;;32.27;;
9739;SDS011;4909;42.680;26.324;2023-05-16T00:16:46;33.57;;;31.53;;
9739;SDS011;4909;42.680;26.324;2023-05-16T00:19:12;34.17;;;32.40;;
9739;SDS011;4909;42.680;26.324;2023-05-16T00:21:39;36.97;;;34.87;;
9739;SDS011;4909;42.680;26.324;2023-05-16T00:24:07;35.90;;;34.07;;
9739;SDS011;4909;42.680;26.324;2023-05-16T00:26:34;33.23;;;31.33;;
9739;SDS011;4909;42.680;26.324;2023-05-16T00:29:01;28.53;;;27.00;;
9739;SDS011;4909;42.680;26.324;2023-05-16T00:31:28;31.93;;;30.13;;
9739;SDS011;4909;42.680;26.324;2023-05-16T00:33:54;33.40;;;31.50;;
9739;SDS011;4909;42.680;26.324;2023-05-16T00:36:21;29.97;;;28.40;;
9739;SDS011;4909;42.680;26.324;2023-05-16T00:38:48;33.23;;;31.30;;
9739;SDS011;4909;42.680;26.324;2023-05-16T00:41:16;34.80;;;32.93;;
9739;SDS011;4909;42.680;26.324;2023-05-16T00:43:43;30.57;;;28.67;;
9739;SDS011;4909;42.680;26.324;2023-05-16T00:46:10;29.30;;;27.70;;
9739;SDS011;4909;42.680;26.324;2023-05-16T00:48:37;30.50;;;28.80;;
9739;SDS011;4909;42.680;26.324;2023-05-16T00:51:03;29.93;;;28.03;;
9739;SDS011;4909;42.680;26.324;2023-05-16T00:53:33;26.93;;;25.37;;
9739;SDS011;4909;42.680;26.324;2023-05-16T00:56:00;26.50;;;24.77;;
9739;SDS011;4909;42.680;26.324;2023-05-16T00:58:29;25.90;;;24.50;;
9739;SDS011;4909;42.680;26.324;2023-05-16T01:00:58;24.70;;;22.97;;
9739;SDS011;4909;42.680;26.324;2023-05-16T01:03:26;25.27;;;23.87;;
9739;SDS011;4909;42.680;26.324;2023-05-16T01:05:53;26.43;;;25.00;;
9739;SDS011;4909;42.680;26.324;2023-05-16T01:08:20;26.93;;;25.40;;
9739;SDS011;4909;42.680;26.324;2023-05-16T01:10:49;28.63;;;26.87;;
9739;SDS011;4909;42.680;26.324;2023-05-16T01:13:27;27.23;;;25.53;;
9739;SDS011;4909;42.680;26.324;2023-05-16T01:16:04;26.07;;;24.47;;
9739;SDS011;4909;42.680;26.324;2023-05-16T01:18:41;26.20;;;24.63;;
9739;SDS011;4909;42.680;26.324;2023-05-16T01:21:16;25.87;;;24.37;;
9739;SDS011;4909;42.680;26.324;2023-05-16T01:23:55;26.03;;;24.53;;
9739;SDS011;4909;42.680;26.324;2023-05-16T01:26:30;23.60;;;22.00;;
9739;SDS011;4909;42.680;26.324;2023-05-16T01:28:57;23.90;;;22.57;;
9739;SDS011;4909;42.680;26.324;2023-05-16T01:31:26;22.90;;;21.50;;
9739;SDS011;4909;42.680;26.324;2023-05-16T01:33:52;21.83;;;20.43;;
9739;SDS011;4909;42.680;26.324;2023-05-16T01:36:22;22.20;;;20.87;;
9739;SDS011;4909;42.680;26.324;2023-05-16T01:38:55;22.40;;;21.33;;
9739;SDS011;4909;42.680;26.324;2023-05-16T01:41:28;21.63;;;20.37;;
9739;SDS011;4909;42.680;26.324;2023-05-16T01:44:06;23.60;;;22.20;;
9739;SDS011;4909;42.680;26.324;2023-05-16T01:46:42;23.30;;;21.90;;
9739;SDS011;4909;42.680;26.324;2023-05-16T01:49:14;24.47;;;22.97;;
9739;SDS011;4909;42.680;26.324;2023-05-16T01:51:48;23.07;;;21.67;;
9739;SDS011;4909;42.680;26.324;2023-05-16T01:54:19;23.03;;;21.73;;
9739;SDS011;4909;42.680;26.324;2023-05-16T01:56:52;23.00;;;21.50;;
9739;SDS011;4909;42.680;26.324;2023-05-16T01:59:21;22.60;;;21.10;;
9739;SDS011;4909;42.680;26.324;2023-05-16T02:01:52;21.70;;;20.37;;
9739;SDS011;4909;42.680;26.324;2023-05-16T02:04:19;20.83;;;19.50;;
9739;SDS011;4909;42.680;26.324;2023-05-16T02:06:46;20.40;;;19.03;;
9739;SDS011;4909;42.680;26.324;2023-05-16T02:09:13;20.80;;;19.50;;
9739;SDS011;4909;42.680;26.324;2023-05-16T02:11:40;20.70;;;19.40;;
9739;SDS011;4909;42.680;26.324;2023-05-16T02:14:08;20.57;;;19.43;;
9739;SDS011;4909;42.680;26.324;2023-05-16T02:16:35;18.70;;;17.50;;
9739;SDS011;4909;42.680;26.324;2023-05-16T02:19:01;20.57;;;19.07;;
9739;SDS011;4909;42.680;26.324;2023-05-16T02:21:28;17.90;;;16.70;;
9739;SDS011;4909;42.680;26.324;2023-05-16T02:23:55;14.10;;;13.13;;
9739;SDS011;4909;42.680;26.324;2023-05-16T02:26:22;13.63;;;12.40;;
9739;SDS011;4909;42.680;26.324;2023-05-16T02:28:48;13.37;;;12.47;;
9739;SDS011;4909;42.680;26.324;2023-05-16T02:31:25;16.13;;;14.97;;
9739;SDS011;4909;42.680;26.324;2023-05-16T02:33:53;16.37;;;15.27;;
9739;SDS011;4909;42.680;26.324;2023-05-16T02:36:19;16.83;;;15.73;;
9739;SDS011;4909;42.680;26.324;2023-05-16T02:38:46;16.13;;;14.93;;
9739;SDS011;4909;42.680;26.324;2023-05-16T02:41:13;18.03;;;16.67;;
9739;SDS011;4909;42.680;26.324;2023-05-16T02:43:40;17.20;;;16.00;;
9739;SDS011;4909;42.680;26.324;2023-05-16T02:46:18;17.57;;;16.33;;
9739;SDS011;4909;42.680;26.324;2023-05-16T02:48:47;17.47;;;16.30;;
9739;SDS011;4909;42.680;26.324;2023-05-16T02:51:14;17.87;;;16.60;;
9739;SDS011;4909;42.680;26.324;2023-05-16T02:53:41;18.07;;;16.67;;
9739;SDS011;4909;42.680;26.324;2023-05-16T02:56:07;18.33;;;17.17;;
9739;SDS011;4909;42.680;26.324;2023-05-16T02:58:34;17.97;;;16.53;;
9739;SDS011;4909;42.680;26.324;2023-05-16T03:01:01;18.07;;;16.83;;
9739;SDS011;4909;42.680;26.324;2023-05-16T03:03:28;20.10;;;18.70;;
9739;SDS011;4909;42.680;26.324;2023-05-16T03:05:56;18.13;;;16.87;;
9739;SDS011;4909;42.680;26.324;2023-05-16T03:08:23;18.57;;;17.23;;
9739;SDS011;4909;42.680;26.324;2023-05-16T03:10:50;19.37;;;18.07;;
9739;SDS011;4909;42.680;26.324;2023-05-16T03:13:16;18.40;;;17.00;;
9739;SDS011;4909;42.680;26.324;2023-05-16T03:15:43;20.33;;;18.70;;
9739;SDS011;4909;42.680;26.324;2023-05-16T03:18:10;20.23;;;19.03;;
9739;SDS011;4909;42.680;26.324;2023-05-16T03:20:37;22.67;;;21.33;;
9739;SDS011;4909;42.680;26.324;2023-05-16T03:23:05;22.17;;;20.47;;
9739;SDS011;4909;42.680;26.324;2023-05-16T03:25:32;22.17;;;20.87;;
9739;SDS011;4909;42.680;26.324;2023-05-16T03:28:00;23.37;;;21.73;;
9739;SDS011;4909;42.680;26.324;2023-05-16T03:30:27;20.40;;;19.07;;
9739;SDS011;4909;42.680;26.324;2023-05-16T03:32:54;20.20;;;18.90;;
9739;SDS011;4909;42.680;26.324;2023-05-16T03:35:21;20.87;;;19.70;;
9739;SDS011;4909;42.680;26.324;2023-05-16T03:37:48;20.40;;;19.10;;
9739;SDS011;4909;42.680;26.324;2023-05-16T03:40:17;17.60;;;16.50;;
9739;SDS011;4909;42.680;26.324;2023-05-16T03:42:44;19.40;;;18.03;;
9739;SDS011;4909;42.680;26.324;2023-05-16T03:45:10;17.30;;;16.20;;
9739;SDS011;4909;42.680;26.324;2023-05-16T03:47:37;14.73;;;13.60;;
9739;SDS011;4909;42.680;26.324;2023-05-16T03:50:05;10.07;;;9.17;;
9739;SDS011;4909;42.680;26.324;2023-05-16T03:52:33;8.70;;;7.03;;
9739;SDS011;4909;42.680;26.324;2023-05-16T03:55:01;12.07;;;10.97;;
9739;SDS011;4909;42.680;26.324;2023-05-16T03:57:30;16.27;;;15.03;;
9739;SDS011;4909;42.680;26.324;2023-05-16T03:59:57;17.53;;;16.17;;
9739;SDS011;4909;42.680;26.324;2023-05-16T04:02:24;16.90;;;15.90;;
9739;SDS011;4909;42.680;26.324;2023-05-16T04:04:51;15.70;;;14.50;;
9739;SDS011;4909;42.680;26.324;2023-05-16T04:07:18;14.83;;;14.27;;
9739;SDS011;4909;42.680;26.324;2023-05-16T04:09:44;16.03;;;14.83;;
9739;SDS011;4909;42.680;26.324;2023-05-16T04:12:11;15.50;;;14.37;;
9739;SDS011;4909;42.680;26.324;2023-05-16T04:14:39;16.10;;;14.87;;
9739;SDS011;4909;42.680;26.324;2023-05-16T04:17:06;16.63;;;15.13;;
9739;SDS011;4909;42.680;26.324;2023-05-16T04:19:33;16.10;;;14.90;;
9739;SDS011;4909;42.680;26.324;2023-05-16T04:22:00;17.60;;;16.30;;
9739;SDS011;4909;42.680;26.324;2023-05-16T04:24:26;18.93;;;17.60;;
9739;SDS011;4909;42.680;26.324;2023-05-16T04:26:53;17.70;;;16.33;;
9739;SDS011;4909;42.680;26.324;2023-05-16T04:29:20;19.43;;;18.13;;
9739;SDS011;4909;42.680;26.324;2023-05-16T04:31:49;17.67;;;16.37;;
9739;SDS011;4909;42.680;26.324;2023-05-16T04:34:15;17.23;;;16.03;;
9739;SDS011;4909;42.680;26.324;2023-05-16T04:36:42;18.20;;;16.60;;
9739;SDS011;4909;42.680;26.324;2023-05-16T04:39:09;16.23;;;15.07;;
9739;SDS011;4909;42.680;26.324;2023-05-16T04:41:36;17.80;;;16.33;;
9739;SDS011;4909;42.680;26.324;2023-05-16T04:44:03;18.13;;;16.73;;
9739;SDS011;4909;42.680;26.324;2023-05-16T04:46:30;16.77;;;15.57;;
9739;SDS011;4909;42.680;26.324;2023-05-16T04:48:58;20.00;;;18.13;;
9739;SDS011;4909;42.680;26.324;2023-05-16T04:51:25;17.70;;;16.27;;
9739;SDS011;4909;42.680;26.324;2023-05-16T04:53:52;18.23;;;16.73;;
9739;SDS011;4909;42.680;26.324;2023-05-16T04:56:18;18.40;;;17.23;;
9739;SDS011;4909;42.680;26.324;2023-05-16T04:58:46;19.20;;;17.70;;
9739;SDS011;4909;42.680;26.324;2023-05-16T05:01:13;20.27;;;18.90;;
9739;SDS011;4909;42.680;26.324;2023-05-16T05:03:40;22.47;;;20.87;;
9739;SDS011;4909;42.680;26.324;2023-05-16T05:06:08;21.13;;;19.60;;
9739;SDS011;4909;42.680;26.324;2023-05-16T05:08:34;24.50;;;22.97;;
9739;SDS011;4909;42.680;26.324;2023-05-16T05:11:02;23.20;;;21.40;;
9739;SDS011;4909;42.680;26.324;2023-05-16T05:13:29;22.43;;;21.17;;
9739;SDS011;4909;42.680;26.324;2023-05-16T05:15:55;22.87;;;21.50;;
9739;SDS011;4909;42.680;26.324;2023-05-16T05:18:22;24.90;;;23.43;;
9739;SDS011;4909;42.680;26.324;2023-05-16T05:20:49;23.07;;;21.37;;
9739;SDS011;4909;42.680;26.324;2023-05-16T05:23:18;22.10;;;20.43;;
9739;SDS011;4909;42.680;26.324;2023-05-16T05:25:45;22.10;;;20.27;;
9739;SDS011;4909;42.680;26.324;2023-05-16T05:28:12;25.43;;;22.27;;
9739;SDS011;4909;42.680;26.324;2023-05-16T05:30:38;22.43;;;20.97;;
9739;SDS011;4909;42.680;26.324;2023-05-16T05:33:05;23.70;;;22.10;;
9739;SDS011;4909;42.680;26.324;2023-05-16T05:35:32;23.97;;;22.40;;
9739;SDS011;4909;42.680;26.324;2023-05-16T05:37:59;26.77;;;25.00;;
9739;SDS011;4909;42.680;26.324;2023-05-16T05:40:27;25.70;;;24.27;;
9739;SDS011;4909;42.680;26.324;2023-05-16T05:42:54;24.67;;;23.37;;
9739;SDS011;4909;42.680;26.324;2023-05-16T05:45:21;21.83;;;20.53;;
9739;SDS011;4909;42.680;26.324;2023-05-16T05:47:48;22.63;;;20.97;;
9739;SDS011;4909;42.680;26.324;2023-05-16T05:50:15;24.77;;;22.87;;
9739;SDS011;4909;42.680;26.324;2023-05-16T05:53:00;25.03;;;23.33;;
9739;SDS011;4909;42.680;26.324;2023-05-16T05:55:28;29.40;;;27.33;;
9739;SDS011;4909;42.680;26.324;2023-05-16T05:57:55;28.40;;;26.10;;
9739;SDS011;4909;42.680;26.324;2023-05-16T06:00:22;30.63;;;28.57;;
9739;SDS011;4909;42.680;26.324;2023-05-16T06:02:49;30.57;;;28.53;;
9739;SDS011;4909;42.680;26.324;2023-05-16T06:05:15;30.93;;;29.30;;
9739;SDS011;4909;42.680;26.324;2023-05-16T06:07:42;31.10;;;29.30;;
9739;SDS011;4909;42.680;26.324;2023-05-16T06:10:09;33.30;;;31.57;;
9739;SDS011;4909;42.680;26.324;2023-05-16T06:12:37;34.43;;;32.50;;
9739;SDS011;4909;42.680;26.324;2023-05-16T06:15:04;40.70;;;38.50;;
9739;SDS011;4909;42.680;26.324;2023-05-16T06:17:31;42.13;;;39.80;;
9739;SDS011;4909;42.680;26.324;2023-05-16T06:19:58;43.33;;;40.83;;
9739;SDS011;4909;42.680;26.324;2023-05-16T06:22:25;44.93;;;42.20;;
9739;SDS011;4909;42.680;26.324;2023-05-16T06:24:52;43.80;;;41.67;;
9739;SDS011;4909;42.680;26.324;2023-05-16T06:27:19;50.93;;;48.10;;
9739;SDS011;4909;42.680;26.324;2023-05-16T06:29:47;50.63;;;47.97;;
9739;SDS011;4909;42.680;26.324;2023-05-16T06:32:14;52.03;;;49.23;;
9739;SDS011;4909;42.680;26.324;2023-05-16T06:34:40;49.17;;;46.47;;
9739;SDS011;4909;42.680;26.324;2023-05-16T06:37:07;48.60;;;46.27;;
9739;SDS011;4909;42.680;26.324;2023-05-16T06:39:34;59.37;;;56.30;;
9739;SDS011;4909;42.680;26.324;2023-05-16T06:42:01;55.57;;;52.70;;
9739;SDS011;4909;42.680;26.324;2023-05-16T06:44:27;56.77;;;53.67;;
9739;SDS011;4909;42.680;26.324;2023-05-16T06:46:56;60.73;;;57.63;;
9739;SDS011;4909;42.680;26.324;2023-05-16T06:49:22;55.70;;;53.03;;
9739;SDS011;4909;42.680;26.324;2023-05-16T06:51:50;57.43;;;54.67;;
9739;SDS011;4909;42.680;26.324;2023-05-16T06:54:16;48.93;;;46.33;;
9739;SDS011;4909;42.680;26.324;2023-05-16T06:56:44;42.30;;;39.87;;
9739;SDS011;4909;42.680;26.324;2023-05-16T06:59:10;41.43;;;38.93;;
9739;SDS011;4909;42.680;26.324;2023-05-16T07:01:37;41.80;;;39.20;;
9739;SDS011;4909;42.680;26.324;2023-05-16T07:04:06;41.30;;;39.20;;
9739;SDS011;4909;42.680;26.324;2023-05-16T07:06:33;44.53;;;42.23;;
9739;SDS011;4909;42.680;26.324;2023-05-16T07:09:00;49.90;;;47.47;;
9739;SDS011;4909;42.680;26.324;2023-05-16T07:11:27;58.73;;;55.50;;
9739;SDS011;4909;42.680;26.324;2023-05-16T07:13:54;66.67;;;63.43;;
9739;SDS011;4909;42.680;26.324;2023-05-16T07:16:21;70.73;;;67.10;;
9739;SDS011;4909;42.680;26.324;2023-05-16T07:18:48;71.00;;;67.67;;
9739;SDS011;4909;42.680;26.324;2023-05-16T07:21:17;73.83;;;70.13;;
9739;SDS011;4909;42.680;26.324;2023-05-16T07:23:43;75.60;;;71.90;;
9739;SDS011;4909;42.680;26.324;2023-05-16T07:26:10;79.57;;;75.43;;
9739;SDS011;4909;42.680;26.324;2023-05-16T07:28:37;85.63;;;81.30;;
9739;SDS011;4909;42.680;26.324;2023-05-16T07:31:04;76.27;;;72.47;;
9739;SDS011;4909;42.680;26.324;2023-05-16T07:33:32;84.43;;;80.10;;
9739;SDS011;4909;42.680;26.324;2023-05-16T07:35:59;76.67;;;72.80;;
9739;SDS011;4909;42.680;26.324;2023-05-16T07:38:27;81.43;;;77.40;;
9739;SDS011;4909;42.680;26.324;2023-05-16T07:40:54;85.83;;;81.73;;
9739;SDS011;4909;42.680;26.324;2023-05-16T07:43:21;91.30;;;86.77;;
9739;SDS011;4909;42.680;26.324;2023-05-16T07:45:48;85.47;;;81.00;;
9739;SDS011;4909;42.680;26.324;2023-05-16T07:48:15;90.67;;;86.00;;
9739;SDS011;4909;42.680;26.324;2023-05-16T07:50:42;90.83;;;86.33;;
9739;SDS011;4909;42.680;26.324;2023-05-16T07:53:09;95.57;;;90.77;;
9739;SDS011;4909;42.680;26.324;2023-05-16T07:55:37;95.27;;;90.23;;
9739;SDS011;4909;42.680;26.324;2023-05-16T07:58:04;102.40;;;97.43;;
9739;SDS011;4909;42.680;26.324;2023-05-16T08:00:30;105.67;;;100.57;;
9739;SDS011;4909;42.680;26.324;2023-05-16T08:02:57;103.87;;;98.70;;
9739;SDS011;4909;42.680;26.324;2023-05-16T08:05:24;102.67;;;97.50;;
9739;SDS011;4909;42.680;26.324;2023-05-16T08:07:51;99.73;;;94.40;;
9739;SDS011;4909;42.680;26.324;2023-05-16T08:10:18;97.33;;;92.53;;
9739;SDS011;4909;42.680;26.324;2023-05-16T08:12:46;100.63;;;95.63;;
9739;SDS011;4909;42.680;26.324;2023-05-16T08:15:13;97.57;;;92.60;;
9739;SDS011;4909;42.680;26.324;2023-05-16T08:17:40;94.93;;;90.13;;
9739;SDS011;4909;42.680;26.324;2023-05-16T08:20:07;97.50;;;92.87;;
9739;SDS011;4909;42.680;26.324;2023-05-16T08:22:34;96.33;;;91.50;;
9739;SDS011;4909;42.680;26.324;2023-05-16T08:25:01;103.60;;;98.03;;
9739;SDS011;4909;42.680;26.324;2023-05-16T08:27:28;108.03;;;101.47;;
9739;SDS011;4909;42.680;26.324;2023-05-16T08:29:57;105.40;;;100.10;;
9739;SDS011;4909;42.680;26.324;2023-05-16T08:32:24;107.03;;;101.57;;
9739;SDS011;4909;42.680;26.324;2023-05-16T08:34:51;118.63;;;112.43;;
9739;SDS011;4909;42.680;26.324;2023-05-16T08:37:18;125.03;;;118.40;;
9739;SDS011;4909;42.680;26.324;2023-05-16T08:39:44;130.00;;;123.10;;
9739;SDS011;4909;42.680;26.324;2023-05-16T08:42:11;138.73;;;131.53;;
9739;SDS011;4909;42.680;26.324;2023-05-16T08:44:38;145.07;;;137.57;;
9739;SDS011;4909;42.680;26.324;2023-05-16T08:47:09;142.07;;;134.60;;
9739;SDS011;4909;42.680;26.324;2023-05-16T08:49:38;153.77;;;145.53;;
9739;SDS011;4909;42.680;26.324;2023-05-16T08:52:07;158.87;;;150.50;;
9739;SDS011;4909;42.680;26.324;2023-05-16T08:54:35;149.43;;;142.13;;
9739;SDS011;4909;42.680;26.324;2023-05-16T08:57:02;157.27;;;149.30;;
9739;SDS011;4909;42.680;26.324;2023-05-16T08:59:30;154.03;;;146.63;;
9739;SDS011;4909;42.680;26.324;2023-05-16T09:01:58;156.90;;;149.00;;
9739;SDS011;4909;42.680;26.324;2023-05-16T09:04:26;167.80;;;159.67;;
9739;SDS011;4909;42.680;26.324;2023-05-16T09:06:53;174.43;;;165.57;;
9739;SDS011;4909;42.680;26.324;2023-05-16T09:09:21;201.53;;;191.60;;
9739;SDS011;4909;42.680;26.324;2023-05-16T09:11:47;202.73;;;192.17;;
9739;SDS011;4909;42.680;26.324;2023-05-16T09:14:14;218.87;;;207.30;;
9739;SDS011;4909;42.680;26.324;2023-05-16T09:16:41;217.20;;;206.20;;
9739;SDS011;4909;42.680;26.324;2023-05-16T09:19:10;229.53;;;217.70;;
9739;SDS011;4909;42.680;26.324;2023-05-16T09:21:39;243.53;;;231.00;;
9739;SDS011;4909;42.680;26.324;2023-05-16T09:24:08;237.17;;;224.73;;
9739;SDS011;4909;42.680;26.324;2023-05-16T09:26:35;242.27;;;229.97;;
9739;SDS011;4909;42.680;26.324;2023-05-16T09:29:09;247.17;;;234.37;;
9739;SDS011;4909;42.680;26.324;2023-05-16T09:31:36;252.77;;;239.63;;
9739;SDS011;4909;42.680;26.324;2023-05-16T09:34:03;250.87;;;238.13;;
9739;SDS011;4909;42.680;26.324;2023-05-16T09:36:32;275.80;;;261.53;;
9739;SDS011;4909;42.680;26.324;2023-05-16T09:39:00;278.97;;;264.67;;
9739;SDS011;4909;42.680;26.324;2023-05-16T09:41:27;275.93;;;261.87;;
9739;SDS011;4909;42.680;26.324;2023-05-16T09:43:58;276.10;;;262.33;;
9739;SDS011;4909;42.680;26.324;2023-05-16T09:46:25;294.43;;;279.27;;
9739;SDS011;4909;42.680;26.324;2023-05-16T09:48:52;290.40;;;275.40;;
9739;SDS011;4909;42.680;26.324;2023-05-16T09:51:21;294.93;;;279.47;;
9739;SDS011;4909;42.680;26.324;2023-05-16T09:53:48;308.57;;;292.33;;
9739;SDS011;4909;42.680;26.324;2023-05-16T09:56:16;302.57;;;286.53;;
9739;SDS011;4909;42.680;26.324;2023-05-16T09:58:43;318.53;;;302.50;;
9739;SDS011;4909;42.680;26.324;2023-05-16T10:01:11;305.83;;;290.50;;
9739;SDS011;4909;42.680;26.324;2023-05-16T10:03:38;300.83;;;286.00;;
9739;SDS011;4909;42.680;26.324;2023-05-16T10:06:06;320.53;;;304.83;;
9739;SDS011;4909;42.680;26.324;2023-05-16T10:08:34;311.23;;;296.20;;
9739;SDS011;4909;42.680;26.324;2023-05-16T10:11:02;319.07;;;302.80;;
9739;SDS011;4909;42.680;26.324;2023-05-16T10:13:32;331.97;;;315.10;;
9739;SDS011;4909;42.680;26.324;2023-05-16T10:16:00;346.53;;;329.10;;
9739;SDS011;4909;42.680;26.324;2023-05-16T10:18:31;319.63;;;303.30;;
9739;SDS011;4909;42.680;26.324;2023-05-16T10:21:02;312.50;;;296.80;;
9739;SDS011;4909;42.680;26.324;2023-05-16T10:23:30;317.57;;;301.87;;
9739;SDS011;4909;42.680;26.324;2023-05-16T10:25:59;308.07;;;292.17;;
9739;SDS011;4909;42.680;26.324;2023-05-16T10:28:28;300.53;;;285.30;;
9739;SDS011;4909;42.680;26.324;2023-05-16T10:30:57;297.17;;;281.70;;
9739;SDS011;4909;42.680;26.324;2023-05-16T10:33:25;305.63;;;289.90;;
9739;SDS011;4909;42.680;26.324;2023-05-16T10:35:53;300.77;;;284.43;;
9739;SDS011;4909;42.680;26.324;2023-05-16T10:38:21;273.90;;;260.47;;
9739;SDS011;4909;42.680;26.324;2023-05-16T10:40:49;287.10;;;272.97;;
9739;SDS011;4909;42.680;26.324;2023-05-16T10:43:21;279.13;;;265.23;;
9739;SDS011;4909;42.680;26.324;2023-05-16T10:45:53;290.43;;;275.93;;
9739;SDS011;4909;42.680;26.324;2023-05-16T10:48:28;292.50;;;277.80;;
9739;SDS011;4909;42.680;26.324;2023-05-16T10:50:56;296.93;;;282.03;;
9739;SDS011;4909;42.680;26.324;2023-05-16T10:53:28;295.07;;;280.40;;
9739;SDS011;4909;42.680;26.324;2023-05-16T10:56:09;296.30;;;282.07;;
9739;SDS011;4909;42.680;26.324;2023-05-16T10:58:40;289.43;;;275.00;;
9739;SDS011;4909;42.680;26.324;2023-05-16T11:01:17;291.17;;;276.80;;
9739;SDS011;4909;42.680;26.324;2023-05-16T11:04:00;289.57;;;275.47;;
9739;SDS011;4909;42.680;26.324;2023-05-16T11:06:42;289.80;;;275.80;;
9739;SDS011;4909;42.680;26.324;2023-05-16T11:09:21;284.53;;;270.03;;
9739;SDS011;4909;42.680;26.324;2023-05-16T11:11:54;289.13;;;274.90;;
9739;SDS011;4909;42.680;26.324;2023-05-16T11:14:25;286.93;;;273.33;;
9739;SDS011;4909;42.680;26.324;2023-05-16T11:16:59;279.63;;;266.17;;
9739;SDS011;4909;42.680;26.324;2023-05-16T11:19:29;273.43;;;260.10;;
9739;SDS011;4909;42.680;26.324;2023-05-16T11:22:04;273.13;;;259.60;;
9739;SDS011;4909;42.680;26.324;2023-05-16T11:24:47;274.53;;;261.03;;
9739;SDS011;4909;42.680;26.324;2023-05-16T11:27:20;267.27;;;254.33;;
9739;SDS011;4909;42.680;26.324;2023-05-16T11:29:48;275.17;;;261.43;;
9739;SDS011;4909;42.680;26.324;2023-05-16T11:32:17;288.00;;;273.80;;
9739;SDS011;4909;42.680;26.324;2023-05-16T11:34:47;280.67;;;266.80;;
9739;SDS011;4909;42.680;26.324;2023-05-16T11:37:14;278.97;;;265.17;;
9739;SDS011;4909;42.680;26.324;2023-05-16T11:39:42;283.23;;;269.00;;
9739;SDS011;4909;42.680;26.324;2023-05-16T11:42:08;278.83;;;265.03;;
9739;SDS011;4909;42.680;26.324;2023-05-16T11:44:35;284.30;;;270.27;;
9739;SDS011;4909;42.680;26.324;2023-05-16T11:47:02;285.37;;;271.70;;
9739;SDS011;4909;42.680;26.324;2023-05-16T11:49:30;282.47;;;268.47;;
9739;SDS011;4909;42.680;26.324;2023-05-16T11:51:58;287.53;;;273.33;;
9739;SDS011;4909;42.680;26.324;2023-05-16T11:54:25;282.50;;;268.60;;
9739;SDS011;4909;42.680;26.324;2023-05-16T11:56:52;286.13;;;272.53;;
9739;SDS011;4909;42.680;26.324;2023-05-16T11:59:19;286.97;;;272.43;;
9739;SDS011;4909;42.680;26.324;2023-05-16T12:01:46;287.07;;;272.83;;
9739;SDS011;4909;42.680;26.324;2023-05-16T12:04:15;290.40;;;276.00;;
9739;SDS011;4909;42.680;26.324;2023-05-16T12:06:44;283.40;;;269.67;;
9739;SDS011;4909;42.680;26.324;2023-05-16T12:09:26;278.10;;;264.70;;
9739;SDS011;4909;42.680;26.324;2023-05-16T12:11:53;273.30;;;259.97;;
9739;SDS011;4909;42.680;26.324;2023-05-16T12:14:20;275.17;;;261.33;;
9739;SDS011;4909;42.680;26.324;2023-05-16T12:16:47;292.47;;;278.27;;
9739;SDS011;4909;42.680;26.324;2023-05-16T12:19:15;286.47;;;272.17;;
9739;SDS011;4909;42.680;26.324;2023-05-16T12:21:41;279.33;;;265.43;;
9739;SDS011;4909;42.680;26.324;2023-05-16T12:24:09;299.90;;;284.70;;
9739;SDS011;4909;42.680;26.324;2023-05-16T12:26:38;305.00;;;290.07;;
9739;SDS011;4909;42.680;26.324;2023-05-16T12:29:06;306.97;;;291.53;;
9739;SDS011;4909;42.680;26.324;2023-05-16T12:31:36;310.67;;;294.80;;
9739;SDS011;4909;42.680;26.324;2023-05-16T12:34:03;320.47;;;304.83;;
9739;SDS011;4909;42.680;26.324;2023-05-16T12:36:31;313.20;;;297.70;;
9739;SDS011;4909;42.680;26.324;2023-05-16T12:38:59;329.83;;;313.77;;
9739;SDS011;4909;42.680;26.324;2023-05-16T12:41:27;319.37;;;303.27;;
9739;SDS011;4909;42.680;26.324;2023-05-16T12:44:06;331.13;;;315.13;;
9739;SDS011;4909;42.680;26.324;2023-05-16T12:46:39;327.77;;;311.53;;
9739;SDS011;4909;42.680;26.324;2023-05-16T12:49:07;323.53;;;307.90;;
9739;SDS011;4909;42.680;26.324;2023-05-16T12:51:34;317.93;;;302.50;;
9739;SDS011;4909;42.680;26.324;2023-05-16T12:54:06;302.53;;;287.63;;
9739;SDS011;4909;42.680;26.324;2023-05-16T12:56:34;303.53;;;288.53;;
9739;SDS011;4909;42.680;26.324;2023-05-16T12:59:02;307.07;;;292.23;;
9739;SDS011;4909;42.680;26.324;2023-05-16T13:01:30;313.40;;;298.00;;
9739;SDS011;4909;42.680;26.324;2023-05-16T13:03:57;308.97;;;293.53;;
9739;SDS011;4909;42.680;26.324;2023-05-16T13:06:24;298.70;;;284.13;;
9739;SDS011;4909;42.680;26.324;2023-05-16T13:08:52;296.80;;;282.20;;
9739;SDS011;4909;42.680;26.324;2023-05-16T13:11:19;303.40;;;288.63;;
9739;SDS011;4909;42.680;26.324;2023-05-16T13:13:46;304.90;;;289.43;;
9739;SDS011;4909;42.680;26.324;2023-05-16T13:16:12;295.60;;;281.00;;
9739;SDS011;4909;42.680;26.324;2023-05-16T13:18:40;297.80;;;283.30;;
9739;SDS011;4909;42.680;26.324;2023-05-16T13:21:07;289.00;;;274.43;;
9739;SDS011;4909;42.680;26.324;2023-05-16T13:23:34;282.30;;;268.40;;
9739;SDS011;4909;42.680;26.324;2023-05-16T13:26:01;278.83;;;265.20;;
9739;SDS011;4909;42.680;26.324;2023-05-16T13:28:29;282.07;;;267.70;;
9739;SDS011;4909;42.680;26.324;2023-05-16T13:30:56;286.00;;;272.00;;
9739;SDS011;4909;42.680;26.324;2023-05-16T13:33:22;287.20;;;272.73;;
9739;SDS011;4909;42.680;26.324;2023-05-16T13:35:51;286.43;;;272.73;;
9739;SDS011;4909;42.680;26.324;2023-05-16T13:38:19;288.23;;;274.27;;
9739;SDS011;4909;42.680;26.324;2023-05-16T13:40:46;278.33;;;264.57;;
9739;SDS011;4909;42.680;26.324;2023-05-16T13:43:12;277.60;;;263.77;;
9739;SDS011;4909;42.680;26.324;2023-05-16T13:45:39;277.77;;;263.83;;
9739;SDS011;4909;42.680;26.324;2023-05-16T13:48:06;290.80;;;276.63;;
9739;SDS011;4909;42.680;26.324;2023-05-16T13:50:33;269.97;;;256.80;;
9739;SDS011;4909;42.680;26.324;2023-05-16T13:53:01;285.57;;;271.77;;
9739;SDS011;4909;42.680;26.324;2023-05-16T13:55:28;278.93;;;265.27;;
9739;SDS011;4909;42.680;26.324;2023-05-16T13:57:55;272.10;;;258.87;;
9739;SDS011;4909;42.680;26.324;2023-05-16T14:00:22;278.40;;;264.73;;
9739;SDS011;4909;42.680;26.324;2023-05-16T14:02:48;278.27;;;264.37;;
9739;SDS011;4909;42.680;26.324;2023-05-16T14:05:15;271.77;;;258.20;;
9739;SDS011;4909;42.680;26.324;2023-05-16T14:07:42;271.57;;;258.13;;
9739;SDS011;4909;42.680;26.324;2023-05-16T14:10:10;276.50;;;262.97;;
9739;SDS011;4909;42.680;26.324;2023-05-16T14:12:37;262.53;;;249.17;;
9739;SDS011;4909;42.680;26.324;2023-05-16T14:15:04;261.67;;;248.10;;
9739;SDS011;4909;42.680;26.324;2023-05-16T14:17:32;264.17;;;251.30;;
9739;SDS011;4909;42.680;26.324;2023-05-16T14:19:59;256.03;;;243.77;;
9739;SDS011;4909;42.680;26.324;2023-05-16T14:22:25;252.33;;;240.00;;
9739;SDS011;4909;42.680;26.324;2023-05-16T14:24:53;249.00;;;237.33;;
9739;SDS011;4909;42.680;26.324;2023-05-16T14:27:21;257.57;;;244.70;;
9739;SDS011;4909;42.680;26.324;2023-05-16T14:29:48;250.23;;;237.90;;